Weather observations for the past three days for
King Airport, St. Thomas
Metric (Imperial)
Date Time (ast) Wind (kph) Vis. (km) Weather Sky Cond. Temperature (ºC) Relative Humidity Wind Chill (°C) Heat Index (°C) Pressure Precipitation (cm)
Air Dwpt 6 hour altimeter (cm) sea level (mb) 1 hr 3 hr 6 hr
Max. Min.
05 20:53 SE 9 16.09 Fair CLR 29 25 79% 35 76.07 0.0
05 19:53 SE 11 16.09 A Few Clouds FEW030 29 25 79% 35 76.05 0.0
05 17:53 SE 19 16.09 Partly Cloudy SCT030 31.1 25 70% 38 75.97 1013.7
05 16:53 SE 26 16.09 Partly Cloudy SCT030 32 25 67% 39 75.95 0.0
05 15:53 SE 22 16.09 Partly Cloudy SCT030 32 25 67% 39 75.95 0.0
05 12:53 SE 19 16.09 Partly Cloudy SCT025 30 25 75% 36 76.02 1014.4
05 11:53 SE 22 16.09 Partly Cloudy SCT030 30 25 75% 36 76.07 0.0
05 10:53 SE 22 16.09 Partly Cloudy SCT030 29 25 79% 35 76.1 0.0
05 09:53 E 9 16.09 Partly Cloudy SCT030 27.8 25 85% 32 76.12 1015.8
05 08:53 E 9 16.09 Partly Cloudy SCT030 28 25 84% 33 76.1 0.0
05 07:53 E 15 16.09 Partly Cloudy SCT030 28 25 84% 33 76.1 0.0
04 20:53 SE 17 16.09 A Few Clouds FEW030 30 25 75% 36 76.15 0.0
04 19:53 SE 17 16.09 A Few Clouds FEW030 30 25 75% 36 76.12 1015.8
04 18:53 SE 19 16.09 A Few Clouds FEW020 32.2 25 66% 39 76.07 1015.1
04 17:53 SE 19 16.09 A Few Clouds FEW020 33 25 63% 41 76.05 0.0
04 16:53 SE 22 16.09 Partly Cloudy SCT030 31.1 25 70% 38 76.05 1014.7
04 15:53 SE 19 16.09 Partly Cloudy SCT030 33 25 63% 41 76.05 0.0
04 14:53 SE 22 16.09 Partly Cloudy SCT030 32 25 67% 39 76.07 0.0
04 13:53 SE 19 16.09 Partly Cloudy SCT030 32 25 67% 39 76.15 0.0
04 12:53 SE 28 16.09 Partly Cloudy SCT030 38 25 47% 47 76.17 0.0
04 11:53 SE 28 16.09 Partly Cloudy SCT030 31 24 66% 37 76.23 0.0
04 10:53 SE 28 16.09 Partly Cloudy SCT030 31 24 66% 37 76.23 0.0
04 09:53 SE 19 16.09 Partly Cloudy SCT030 30 25 75% 36 76.23 0.0
04 07:53 E 19 16.09 A Few Clouds FEW030 29 25 79% 35 76.15 0.0
03 20:53 E 19 16.09 Partly Cloudy SCT030 31 22 59% 35 76.17 0.0
03 19:53 SE 20 16.09 Partly Cloudy SCT030 31.1 22.8 61% 35 76.12 1015.8
03 17:53 SE 22 16.09 Partly Cloudy SCT035 32 23 59% 37 76.07 0.0
03 16:53 SE 22 16.09 Partly Cloudy SCT030 32 23 59% 37 76.07 0.0
03 15:53 SE 22 16.09 Partly Cloudy SCT030 32.2 22.8 58% 37 76.05 1014.7
03 14:53 SE 22 16.09 Partly Cloudy SCT030 32 23 59% 37 76.07 0.0
03 13:53 SE 24 16.09 Partly Cloudy SCT030 32 23 59% 37 76.1 0.0
03 12:53 SE 24 16.09 Partly Cloudy SCT030 32 23 59% 37 76.15 0.0
03 11:53 SE 22 16.09 Partly Cloudy SCT030 31 23 62% 35 76.17 0.0
03 10:53 SE 19 16.09 Partly Cloudy SCT030 30 23 66% 34 76.23 0.0
03 08:53 E 11 16.09 Partly Cloudy SCT030 29 23 70% 33 76.17 0.0
03 06:53 E 9 16.09 Fair CLR 27 24 84% 30 76.12 0.0
Date Time (ast) Wind (kph) Vis. (km) Weather Sky Cond. Air Dwpt Max. Min. Relative Humidity Wind Chill (°C) Heat Index (°C) altimeter (cm) sea level (mb) 1 hr 3 hr 6 hr
6 hour
Temperature (ºC) Pressure Precipitation (cm)